KCNK/CNK METAR and TAF weather

Enter ICAO airport designator
Station Type Date Time Source
KCNK METAR 2020/01/21 17:55 UTC NOAA

KCNK 211755Z AUTO 17015KT 10SM CLR M04/M09 A3034 RMK AO2 SLP300 T10391089 11039 21133 58027


Station Type Date Time Source
KCNK Decoded METAR 2020/01/21 17:55 UTC NOAA

Concordia, Blosser Municipal Airport, KS, United States (KCNK) 39-33-05N 097-39-02W 447M
Jan 21, 2020 - 12:55 PM EST / 2020.01.21 1755 UTC
Wind: from the S (170 degrees) at 17 MPH (15 KT):0
Visibility: 10 mile(s):0
Sky conditions: clear
Temperature: 25.0 F (-3.9 C)
Windchill: 12 F (-11 C):1
Dew Point: 16.0 F (-8.9 C)
Relative Humidity: 68%
Pressure (altimeter): 30.34 in. Hg (1027 hPa)
Pressure tendency: 0.08 inches (2.7 hPa) lower than three hours ago
ob: KCNK 211755Z AUTO 17015KT 10SM CLR M04/M09 A3034 RMK AO2 SLP300 T10391089 11039 21133 58027
cycle: 18

Station Type Date Time Source
KCNK TAF UTC NOAA

Error!

Example: see airport list